Time,TemperatureF,DewpointF,PressureIn,WindDirection,WindDirectionDegrees,WindSpeedMPH,WindSpeedGustMPH,Humidity,HourlyPrecipIn,Conditions,Clouds,dailyrainin,SoftwareType,DateUTC
2013-02-27 00:14:00,40.4,33.5,29.84,NNW,331,4.6,9.2,76,0.00,,,0.00,VWS V14.01,2013-02-27 06:14:00,
2013-02-27 00:28:00,40.3,33.3,29.84,NW,307,2.3,6.9,76,0.00,,,0.00,VWS V14.01,2013-02-27 06:28:00,
2013-02-27 00:43:00,40.3,33.0,29.85,West,270,3.4,10.3,75,0.00,,,0.00,VWS V14.01,2013-02-27 06:43:00,
2013-02-27 00:59:00,40.3,33.3,29.86,NW,309,6.9,9.2,76,0.00,,,0.00,VWS V14.01,2013-02-27 06:59:00,
2013-02-27 01:14:00,40.2,32.9,29.86,NW,326,1.1,8.1,75,0.00,,,0.00,VWS V14.01,2013-02-27 07:14:00,
2013-02-27 01:28:00,40.2,32.9,29.86,WNW,294,2.3,8.1,75,0.00,,,0.00,VWS V14.01,2013-02-27 07:28:00,
2013-02-27 01:44:00,40.2,32.2,29.86,NW,315,1.1,11.5,73,0.00,,,0.00,VWS V14.01,2013-02-27 07:44:00,
2013-02-27 03:29:00,39.5,31.6,29.86,SW,235,0.0,5.8,73,0.00,,,0.00,VWS V14.01,2013-02-27 09:29:00,
2013-02-27 03:44:00,39.4,32.2,29.86,NNE,32,1.1,4.6,75,0.00,,,0.00,VWS V14.01,2013-02-27 09:44:00,
2013-02-27 03:59:00,39.4,32.5,29.87,West,270,0.0,3.4,76,0.00,,,0.00,VWS V14.01,2013-02-27 09:59:00,
2013-02-27 04:14:00,39.4,32.2,29.87,WSW,242,1.1,5.8,75,0.00,,,0.00,VWS V14.01,2013-02-27 10:14:00,
2013-02-27 04:29:00,39.3,32.4,29.86,WNW,288,1.1,5.8,76,0.00,,,0.00,VWS V14.01,2013-02-27 10:29:00,
2013-02-27 04:43:00,39.3,32.0,29.87,West,278,0.0,5.8,75,0.00,,,0.00,VWS V14.01,2013-02-27 10:43:00,
2013-02-27 04:59:00,39.3,32.0,29.87,WNW,290,1.1,9.2,75,0.00,,,0.00,VWS V14.01,2013-02-27 10:59:00,
2013-02-27 05:14:00,39.2,31.6,29.88,West,259,2.3,8.1,74,0.00,,,0.00,VWS V14.01,2013-02-27 11:14:00,
2013-02-27 05:29:00,39.2,31.0,29.88,WNW,290,2.3,9.2,72,0.00,,,0.00,VWS V14.01,2013-02-27 11:29:00,
2013-02-27 05:44:00,39.2,31.0,29.89,WSW,257,2.3,6.9,72,0.00,,,0.00,VWS V14.01,2013-02-27 11:44:00,
2013-02-27 05:59:00,39.2,31.3,29.90,WNW,300,2.3,5.8,73,0.00,,,0.00,VWS V14.01,2013-02-27 11:59:00,
2013-02-27 06:14:00,39.1,31.2,29.90,WNW,288,2.3,6.9,73,0.00,,,0.00,VWS V14.01,2013-02-27 12:14:00,
2013-02-27 06:29:00,39.1,31.5,29.90,West,274,1.1,5.8,74,0.00,,,0.00,VWS V14.01,2013-02-27 12:29:00,
2013-02-27 06:44:00,38.9,30.7,29.90,WSW,245,0.0,10.3,72,0.00,,,0.00,VWS V14.01,2013-02-27 12:44:00,
2013-02-27 06:59:00,38.9,30.7,29.91,WSW,253,0.0,4.6,72,0.00,,,0.00,VWS V14.01,2013-02-27 12:59:00,
2013-02-27 07:14:00,39.1,30.9,29.91,West,267,5.8,8.1,72,0.00,,,0.00,VWS V14.01,2013-02-27 13:14:00,
2013-02-27 07:28:00,39.2,31.0,29.92,WSW,248,1.1,5.8,72,0.00,,,0.00,VWS V14.01,2013-02-27 13:28:00,
2013-02-27 07:43:00,39.3,31.0,29.92,WSW,238,0.0,5.8,72,0.00,,,0.00,VWS V14.01,2013-02-27 13:43:00,
2013-02-27 07:59:00,39.6,31.3,29.92,West,262,3.4,3.4,72,0.00,,,0.00,VWS V14.01,2013-02-27 13:59:00,
2013-02-27 08:13:00,39.8,31.5,29.92,West,262,1.1,4.6,72,0.00,,,0.00,VWS V14.01,2013-02-27 14:13:00,
2013-02-27 08:29:00,39.8,31.5,29.94,West,280,2.3,5.8,72,0.00,,,0.00,VWS V14.01,2013-02-27 14:29:00,
2013-02-27 08:44:00,40.1,32.5,29.94,NW,309,1.1,4.6,74,0.00,,,0.00,VWS V14.01,2013-02-27 14:44:00,
2013-02-27 08:59:00,40.3,33.0,29.94,WSW,247,4.6,8.1,75,0.00,,,0.00,VWS V14.01,2013-02-27 14:59:00,
2013-02-27 09:14:00,40.9,34.3,29.94,WNW,293,1.1,5.8,77,0.00,,,0.00,VWS V14.01,2013-02-27 15:14:00,
2013-02-27 09:29:00,40.8,33.8,29.94,West,274,1.1,5.8,76,0.00,,,0.00,VWS V14.01,2013-02-27 15:29:00,
2013-02-27 09:43:00,40.9,33.3,29.94,SSW,204,0.0,6.9,74,0.00,,,0.00,VWS V14.01,2013-02-27 15:43:00,
2013-02-27 09:59:00,41.6,32.9,29.95,WNW,298,1.1,6.9,71,0.00,,,0.00,VWS V14.01,2013-02-27 15:59:00,
2013-02-27 10:14:00,42.0,32.9,29.95,WNW,302,4.6,8.1,70,0.00,,,0.00,VWS V14.01,2013-02-27 16:14:00,
2013-02-27 10:29:00,42.1,33.0,29.95,WSW,255,0.0,8.1,70,0.00,,,0.00,VWS V14.01,2013-02-27 16:29:00,
2013-02-27 10:44:00,43.1,34.0,29.95,SSW,197,2.3,6.9,70,0.00,,,0.00,VWS V14.01,2013-02-27 16:44:00,
2013-02-27 10:59:00,43.2,33.4,29.95,West,280,3.4,6.9,68,0.00,,,0.00,VWS V14.01,2013-02-27 16:59:00,
2013-02-27 11:14:00,43.3,33.5,29.95,South,181,5.8,10.3,68,0.00,,,0.00,VWS V14.01,2013-02-27 17:14:00,
2013-02-27 11:44:00,44.1,34.6,29.95,SW,221,1.1,9.2,69,0.00,,,0.00,VWS V14.01,2013-02-27 17:44:00,
2013-02-27 11:59:00,44.3,34.4,29.95,South,189,4.6,11.5,68,0.00,,,0.00,VWS V14.01,2013-02-27 17:59:00,
2013-02-27 12:14:00,44.7,34.0,29.94,South,187,3.4,10.3,66,0.00,,,0.00,VWS V14.01,2013-02-27 18:14:00,
2013-02-27 12:44:00,44.1,34.6,29.93,West,263,2.3,11.5,69,0.00,,,0.00,VWS V14.01,2013-02-27 18:44:00,
2013-02-27 12:59:00,43.9,34.4,29.92,SSW,195,2.3,9.2,69,0.00,,,0.00,VWS V14.01,2013-02-27 18:59:00,
2013-02-27 13:14:00,44.4,35.2,29.92,NW,317,0.0,8.1,70,0.00,,,0.00,VWS V14.01,2013-02-27 19:14:00,
2013-02-27 13:29:00,45.1,35.2,29.92,NW,324,2.3,8.1,68,0.00,,,0.00,VWS V14.01,2013-02-27 19:29:00,
2013-02-27 13:44:00,45.5,35.6,29.92,SW,228,0.0,9.2,68,0.00,,,0.00,VWS V14.01,2013-02-27 19:44:00,
2013-02-27 13:59:00,44.8,35.3,29.92,NNW,330,2.3,9.2,69,0.00,,,0.00,VWS V14.01,2013-02-27 19:59:00,
2013-02-27 14:14:00,44.8,35.6,29.93,SW,214,1.1,6.9,70,0.00,,,0.00,VWS V14.01,2013-02-27 20:14:00,
2013-02-27 14:29:00,44.3,35.5,29.93,WSW,248,5.8,10.3,71,0.00,,,0.00,VWS V14.01,2013-02-27 20:29:00,
2013-02-27 14:44:00,44.2,35.8,29.93,North,355,2.3,9.2,72,0.00,,,0.00,VWS V14.01,2013-02-27 20:44:00,
2013-02-27 14:59:00,44.0,35.9,29.93,WSW,249,2.3,11.5,73,0.00,,,0.00,VWS V14.01,2013-02-27 20:59:00,
2013-02-27 15:14:00,43.7,36.0,29.94,WNW,293,2.3,10.3,74,0.00,,,0.00,VWS V14.01,2013-02-27 21:14:00,
2013-02-27 15:29:00,43.4,35.7,29.94,WNW,295,5.8,10.3,74,0.00,,,0.00,VWS V14.01,2013-02-27 21:29:00,
2013-02-27 15:44:00,43.7,35.6,29.94,WSW,250,2.3,11.5,73,0.00,,,0.00,VWS V14.01,2013-02-27 21:44:00,
2013-02-27 15:59:00,44.0,35.6,29.94,WSW,250,2.3,11.5,72,0.00,,,0.00,VWS V14.01,2013-02-27 21:59:00,
2013-02-27 16:14:00,44.4,35.2,29.95,WNW,302,4.6,9.2,70,0.00,,,0.00,VWS V14.01,2013-02-27 22:14:00,
2013-02-27 16:29:00,44.4,35.2,29.95,WSW,245,0.0,6.9,70,0.00,,,0.00,VWS V14.01,2013-02-27 22:29:00,
2013-02-27 16:44:00,44.2,34.3,29.95,SSW,208,3.4,9.2,68,0.00,,,0.00,VWS V14.01,2013-02-27 22:44:00,
2013-02-27 16:59:00,44.0,34.5,29.96,West,278,3.4,8.1,69,0.00,,,0.00,VWS V14.01,2013-02-27 22:59:00,
2013-02-27 17:14:00,43.9,34.8,29.96,WNW,297,1.1,5.8,70,0.00,,,0.00,VWS V14.01,2013-02-27 23:14:00,
2013-02-27 17:28:00,43.9,34.8,29.96,NW,314,1.1,6.9,70,0.00,,,0.00,VWS V14.01,2013-02-27 23:28:00,
2013-02-27 17:43:00,43.8,35.0,29.96,WSW,257,3.4,6.9,71,0.00,,,0.00,VWS V14.01,2013-02-27 23:43:00,
2013-02-27 17:59:00,43.7,34.9,29.96,SW,229,1.1,5.8,71,0.00,,,0.00,VWS V14.01,2013-02-27 23:59:00,
2013-02-27 18:14:00,43.6,34.8,29.97,North,358,0.0,5.8,71,0.00,,,0.00,VWS V14.01,2013-02-28 00:14:00,
2013-02-27 18:28:00,43.1,34.7,29.97,WSW,249,0.0,3.4,72,0.00,,,0.00,VWS V14.01,2013-02-28 00:28:00,
2013-02-27 18:44:00,42.4,34.7,29.97,WSW,255,0.0,4.6,74,0.00,,,0.00,VWS V14.01,2013-02-28 00:44:00,
2013-02-27 18:59:00,42.0,34.7,29.97,South,179,1.1,2.3,75,0.00,,,0.00,VWS V14.01,2013-02-28 00:59:00,
2013-02-27 19:14:00,42.1,34.8,29.97,South,182,1.1,3.4,75,0.00,,,0.00,VWS V14.01,2013-02-28 01:14:00,
2013-02-27 19:29:00,41.8,34.5,29.97,South,187,1.1,4.6,75,0.00,,,0.00,VWS V14.01,2013-02-28 01:29:00,
2013-02-27 19:43:00,42.1,34.8,29.97,SSW,210,2.3,4.6,75,0.00,,,0.00,VWS V14.01,2013-02-28 01:43:00,
2013-02-27 19:59:00,42.3,34.6,29.96,SSW,193,2.3,5.8,74,0.00,,,0.00,VWS V14.01,2013-02-28 01:59:00,
2013-02-27 20:14:00,42.5,34.8,29.96,SSW,195,1.1,8.1,74,0.00,,,0.00,VWS V14.01,2013-02-28 02:14:00,
2013-02-27 20:29:00,42.7,34.7,29.97,SSE,167,3.4,5.8,73,0.00,,,0.00,VWS V14.01,2013-02-28 02:29:00,
2013-02-27 20:43:00,42.7,34.3,29.97,West,273,1.1,5.8,72,0.00,,,0.00,VWS V14.01,2013-02-28 02:43:00,
2013-02-27 20:59:00,42.9,34.2,29.97,SW,226,3.4,8.1,71,0.00,,,0.00,VWS V14.01,2013-02-28 02:59:00,
2013-02-27 21:14:00,43.1,34.3,29.97,NNW,328,2.3,9.2,71,0.00,,,0.00,VWS V14.01,2013-02-28 03:14:00,
2013-02-27 21:29:00,43.0,33.9,29.98,SSW,204,3.4,6.9,70,0.00,,,0.00,VWS V14.01,2013-02-28 03:29:00,
2013-02-27 21:43:00,43.0,34.2,29.98,WSW,253,2.3,8.1,71,0.00,,,0.00,VWS V14.01,2013-02-28 03:43:00,
2013-02-27 21:59:00,42.8,33.7,29.98,West,260,5.8,11.5,70,0.00,,,0.00,VWS V14.01,2013-02-28 03:59:00,
2013-02-27 22:13:00,42.5,33.1,29.98,West,278,8.1,8.1,69,0.00,,,0.00,VWS V14.01,2013-02-28 04:13:00,
2013-02-27 22:29:00,42.3,31.4,29.98,SW,236,1.1,9.2,65,0.00,,,0.00,VWS V14.01,2013-02-28 04:29:00,
2013-02-27 22:43:00,42.1,30.4,29.98,West,264,2.3,13.8,63,0.00,,,0.00,VWS V14.01,2013-02-28 04:43:00,
2013-02-27 22:59:00,41.7,30.4,29.98,SSW,212,2.3,13.8,64,0.00,,,0.00,VWS V14.01,2013-02-28 04:59:00,
2013-02-27 23:13:00,41.2,30.3,29.98,NNE,25,0.0,8.1,65,0.00,,,0.00,VWS V14.01,2013-02-28 05:13:00,
2013-02-27 23:28:00,40.1,30.4,29.99,WNW,291,1.1,13.8,68,0.00,,,0.00,VWS V14.01,2013-02-28 05:28:00,
2013-02-27 23:44:00,39.6,30.3,29.99,West,271,3.4,6.9,69,0.00,,,0.00,VWS V14.01,2013-02-28 05:44:00,
2013-02-27 23:59:00,39.4,30.4,29.99,West,266,2.3,6.9,70,0.00,,,0.00,VWS V14.01,2013-02-28 05:59:00,